createdAt,value
2022-09-28T00:02:23.033Z,99345.41
2022-09-28T00:04:50.702Z,99340.44
2022-09-28T00:07:18.344Z,99343.91
2022-09-28T00:09:45.958Z,99345.56
2022-09-28T00:12:13.638Z,99345.56
2022-09-28T00:14:42.919Z,99342.22
2022-09-28T00:17:12.124Z,99345.56
2022-09-28T00:19:41.203Z,99337.66
2022-09-28T00:22:08.853Z,99330.03
2022-09-28T00:24:36.488Z,99336.94
2022-09-28T00:27:04.193Z,99345.84
2022-09-28T00:29:33.280Z,99338.75
2022-09-28T00:32:03.410Z,99343.38
2022-09-28T00:34:33.230Z,99338.94
2022-09-28T00:37:03.482Z,99332.00
2022-09-28T00:39:31.622Z,99330.34
2022-09-28T00:42:00.104Z,99331.31
2022-09-28T00:44:46.905Z,99334.78
2022-09-28T00:47:39.052Z,99326.22
2022-09-28T00:50:10.257Z,99316.28
2022-09-28T00:52:42.186Z,99321.75
2022-09-28T00:55:13.324Z,99321.06
2022-09-28T00:57:42.809Z,99316.78
2022-09-28T01:00:11.843Z,99317.09
2022-09-28T01:02:39.442Z,99311.00
2022-09-28T01:05:08.905Z,99305.56
2022-09-28T01:07:36.829Z,99310.16
2022-09-28T01:10:06.894Z,99306.56
2022-09-28T01:12:34.547Z,99307.53
2022-09-28T01:15:02.505Z,99310.16
2022-09-28T01:17:37.605Z,99318.09
2022-09-28T01:20:27.966Z,99313.78
2022-09-28T01:23:51.166Z,99305.34
2022-09-28T01:26:58.196Z,99314.41
2022-09-28T01:29:36.012Z,99314.41
2022-09-28T01:32:12.313Z,99307.31
2022-09-28T01:34:46.290Z,99304.69
2022-09-28T01:37:16.272Z,99308.28
2022-09-28T01:39:46.949Z,99303.84
2022-09-28T01:42:18.790Z,99310.09
2022-09-28T01:44:50.533Z,99312.75
2022-09-28T01:47:21.755Z,99310.38
2022-09-28T01:49:52.893Z,99311.38
2022-09-28T01:52:23.540Z,99309.56
2022-09-28T01:54:56.206Z,99303.31
2022-09-28T01:57:26.915Z,99304.44
2022-09-28T01:59:59.806Z,99306.41
2022-09-28T02:02:32.457Z,99297.84
2022-09-28T02:05:04.372Z,99294.50
2022-09-28T02:07:38.045Z,99285.09
2022-09-28T02:10:10.376Z,99296.16
2022-09-28T02:12:41.701Z,99297.00
2022-09-28T02:15:15.375Z,99296.16
2022-09-28T02:17:43.327Z,99292.84
2022-09-28T02:20:11.936Z,99295.50
2022-09-28T02:22:42.976Z,99292.03
2022-09-28T02:25:13.001Z,99294.28
2022-09-28T02:27:43.825Z,99293.16
2022-09-28T02:30:13.406Z,99300.38
2022-09-28T02:32:43.593Z,99300.84
2022-09-28T02:35:15.805Z,99300.16
2022-09-28T02:37:43.551Z,99303.72
2022-09-28T02:40:14.951Z,99307.06
2022-09-28T02:42:51.743Z,99301.81
2022-09-28T02:45:28.980Z,99313.16
2022-09-28T02:48:04.428Z,99304.44
2022-09-28T02:50:38.478Z,99305.97
2022-09-28T02:53:23.200Z,99304.31
2022-09-28T02:56:01.303Z,99307.06
2022-09-28T02:58:36.807Z,99301.25
2022-09-28T03:01:13.637Z,99311.63
2022-09-28T03:03:48.122Z,99313.16
2022-09-28T03:06:21.529Z,99311.50
2022-09-28T03:08:54.043Z,99316.09
2022-09-28T03:11:24.426Z,99306.28
2022-09-28T03:13:52.283Z,99319.03
2022-09-28T03:16:21.460Z,99326.28
2022-09-28T03:18:49.355Z,99310.22
2022-09-28T03:21:17.354Z,99319.63
2022-09-28T03:23:45.129Z,99318.66
2022-09-28T03:26:13.702Z,99319.63
2022-09-28T03:28:41.854Z,99319.63
2022-09-28T03:31:09.799Z,99321.44
2022-09-28T03:33:38.935Z,99324.91
2022-09-28T03:36:08.626Z,99322.41
2022-09-28T03:38:36.409Z,99321.91
2022-09-28T03:41:04.262Z,99325.50
2022-09-28T03:43:32.008Z,99323.56
2022-09-28T03:46:01.352Z,99320.69
2022-09-28T03:48:32.708Z,99321.19
2022-09-28T03:51:03.463Z,99322.03
2022-09-28T03:53:31.480Z,99327.59
2022-09-28T03:56:03.836Z,99325.13
2022-09-28T03:58:31.550Z,99324.72
2022-09-28T04:01:03.344Z,99332.13
2022-09-28T04:03:31.185Z,99324.94
2022-09-28T04:05:59.337Z,99321.50
2022-09-28T04:08:29.182Z,99326.75
2022-09-28T04:10:57.573Z,99331.16
2022-09-28T04:13:25.598Z,99322.59
2022-09-28T04:15:54.012Z,99319.97
2022-09-28T04:18:22.083Z,99324.25
2022-09-28T04:20:49.761Z,99323.56
2022-09-28T04:23:17.529Z,99323.19
2022-09-28T04:25:53.450Z,99331.53
2022-09-28T04:28:38.496Z,99331.28
2022-09-28T04:31:10.154Z,99329.34
2022-09-28T04:33:37.871Z,99328.50
2022-09-28T04:36:06.034Z,99334.75
2022-09-28T04:38:51.908Z,99331.97
2022-09-28T04:41:22.850Z,99339.88
2022-09-28T04:43:50.714Z,99330.97
2022-09-28T04:46:18.478Z,99331.97
2022-09-28T04:48:46.477Z,99323.78
2022-09-28T04:51:14.277Z,99327.38
2022-09-28T04:53:41.934Z,99327.69
2022-09-28T04:56:12.134Z,99326.03
2022-09-28T04:58:41.442Z,99330.31
2022-09-28T05:01:12.499Z,99322.84
2022-09-28T05:03:40.247Z,99326.84
2022-09-28T05:06:08.246Z,99324.38
2022-09-28T05:08:36.501Z,99323.69
2022-09-28T05:11:05.760Z,99327.16
2022-09-28T05:13:35.616Z,99327.00
2022-09-28T05:16:05.733Z,99325.19
2022-09-28T05:18:33.729Z,99319.09
2022-09-28T05:21:01.973Z,99332.28
2022-09-28T05:23:29.707Z,99325.34
2022-09-28T05:25:57.365Z,99332.53
2022-09-28T05:28:28.402Z,99330.88
2022-09-28T05:30:59.862Z,99326.91
2022-09-28T05:33:29.543Z,99322.63
2022-09-28T05:36:01.102Z,99328.84
2022-09-28T05:38:29.857Z,99327.19
2022-09-28T05:40:57.967Z,99328.97
2022-09-28T05:43:25.708Z,99332.44
2022-09-28T05:45:55.819Z,99328.84
2022-09-28T05:48:23.880Z,99339.38
2022-09-28T05:50:54.045Z,99332.19
2022-09-28T05:53:21.797Z,99327.19
2022-09-28T05:55:49.495Z,99351.56
2022-09-28T05:58:17.487Z,99333.53
2022-09-28T06:00:45.292Z,99329.91
2022-09-28T06:03:14.862Z,99329.63
2022-09-28T06:05:42.754Z,99329.63
2022-09-28T06:08:11.985Z,99322.72
2022-09-28T06:10:40.229Z,99333.94
2022-09-28T06:13:08.496Z,99342.66
2022-09-28T06:15:37.886Z,99336.56
2022-09-28T06:18:06.838Z,99343.63
2022-09-28T06:20:36.517Z,99329.38
2022-09-28T06:23:04.549Z,99346.09
2022-09-28T06:25:33.614Z,99349.56
2022-09-28T06:28:02.466Z,99361.91
2022-09-28T06:30:33.483Z,99365.38
2022-09-28T06:33:02.284Z,99366.19
2022-09-28T06:35:31.594Z,99365.38
2022-09-28T06:37:59.806Z,99368.16
2022-09-28T06:40:28.001Z,99370.09
2022-09-28T06:42:58.299Z,99371.47
2022-09-28T06:45:26.544Z,99373.72
2022-09-28T06:47:56.594Z,99386.59
2022-09-28T06:50:24.795Z,99378.53
2022-09-28T06:52:53.860Z,99387.25
2022-09-28T06:55:21.814Z,99389.22
2022-09-28T06:58:00.171Z,99385.59
2022-09-28T07:00:28.792Z,99382.28
2022-09-28T07:02:56.518Z,99388.38
2022-09-28T07:05:27.253Z,99390.34
2022-09-28T07:07:56.452Z,99395.47
2022-09-28T07:10:24.748Z,99397.13
2022-09-28T07:12:52.894Z,99389.88
2022-09-28T07:15:22.658Z,99406.38
2022-09-28T07:17:59.678Z,99406.38
2022-09-28T07:20:30.415Z,99408.06
2022-09-28T07:23:08.817Z,99409.72
2022-09-28T07:25:45.443Z,99408.72
2022-09-28T07:28:13.322Z,99411.06
2022-09-28T07:30:44.255Z,99407.19
2022-09-28T07:33:14.519Z,99411.16
2022-09-28T07:35:43.007Z,99421.56
2022-09-28T07:38:12.361Z,99434.44
2022-09-28T07:40:57.904Z,99420.44
2022-09-28T07:43:25.626Z,99422.41
2022-09-28T07:45:55.659Z,99429.03
2022-09-28T07:48:23.840Z,99433.88
2022-09-28T07:50:52.271Z,99425.13
2022-09-28T07:53:20.253Z,99427.16
2022-09-28T07:55:52.130Z,99429.53
2022-09-28T07:58:20.706Z,99434.78
2022-09-28T08:00:49.079Z,99443.53
2022-09-28T08:03:18.911Z,99445.31
2022-09-28T08:05:47.408Z,99434.78
2022-09-28T08:08:15.367Z,99445.31
2022-09-28T08:10:46.807Z,99438.09
2022-09-28T08:13:16.301Z,99447.38
2022-09-28T08:15:44.134Z,99452.50
2022-09-28T08:18:11.908Z,99449.41
2022-09-28T08:20:58.452Z,99457.72
2022-09-28T08:23:26.154Z,99451.19
2022-09-28T08:25:55.013Z,99447.44
2022-09-28T08:28:23.794Z,99454.63
2022-09-28T08:30:51.916Z,99452.66
2022-09-28T08:33:21.212Z,99463.75
2022-09-28T08:35:57.483Z,99465.94
2022-09-28T08:38:25.453Z,99459.97
2022-09-28T08:41:01.354Z,99470.63
2022-09-28T08:43:54.477Z,99458.41
2022-09-28T08:46:27.032Z,99470.03
2022-09-28T08:49:20.761Z,99473.34
2022-09-28T08:51:51.470Z,99477.63
2022-09-28T08:54:27.095Z,99480.00
2022-09-28T08:56:56.926Z,99486.91
2022-09-28T08:59:26.617Z,99482.31
2022-09-28T09:01:58.110Z,99487.44
2022-09-28T09:04:25.986Z,99488.41
2022-09-28T09:07:07.166Z,99489.09
2022-09-28T09:09:44.333Z,99487.16
2022-09-28T09:12:18.344Z,99493.63
2022-09-28T09:15:08.737Z,99497.63
2022-09-28T09:17:43.981Z,99504.25
2022-09-28T09:20:20.164Z,99494.41
2022-09-28T09:23:00.000Z,99500.34
2022-09-28T09:25:29.694Z,99497.88
2022-09-28T09:28:12.287Z,99507.81
2022-09-28T09:30:45.693Z,99496.34
2022-09-28T09:33:38.015Z,99505.47
2022-09-28T09:36:14.890Z,99505.78
2022-09-28T09:38:51.682Z,99505.94
2022-09-28T09:41:27.164Z,99515.03
2022-09-28T09:44:22.274Z,99519.19
2022-09-28T09:46:53.570Z,99521.59
2022-09-28T09:49:23.742Z,99527.47
2022-09-28T09:51:54.471Z,99527.19
2022-09-28T09:54:26.642Z,99528.03
2022-09-28T09:56:57.572Z,99523.03
2022-09-28T09:59:28.856Z,99518.56
2022-09-28T10:01:57.206Z,99525.63
2022-09-28T10:04:27.840Z,99520.47
2022-09-28T10:07:00.193Z,99527.63
2022-09-28T10:09:31.966Z,99533.44
2022-09-28T10:11:59.679Z,99523.06
2022-09-28T10:14:27.836Z,99525.69
2022-09-28T10:16:58.264Z,99522.06
2022-09-28T10:19:31.694Z,99521.09
2022-09-28T10:22:01.848Z,99528.69
2022-09-28T10:24:34.982Z,99509.69
2022-09-28T10:27:07.327Z,99524.34
2022-09-28T10:29:43.267Z,99528.00
2022-09-28T10:32:23.812Z,99518.13
2022-09-28T10:34:52.187Z,99520.28
2022-09-28T10:37:20.432Z,99528.75
2022-09-28T10:39:52.221Z,99530.91
2022-09-28T10:42:22.113Z,99535.91
2022-09-28T10:44:55.816Z,99536.25
2022-09-28T10:48:26.040Z,99538.91
2022-09-28T10:53:59.860Z,99540.88
2022-09-28T10:56:29.635Z,99539.88
2022-09-28T10:58:57.952Z,99543.34
2022-09-28T11:01:29.606Z,99531.97
2022-09-28T11:03:58.625Z,99536.13
2022-09-28T11:06:28.154Z,99539.00
2022-09-28T11:08:59.208Z,99546.97
2022-09-28T11:11:27.097Z,99542.34
2022-09-28T11:13:56.994Z,99542.59
2022-09-28T11:16:28.607Z,99536.75
2022-09-28T11:18:56.862Z,99541.91
2022-09-28T11:21:26.617Z,99533.13
2022-09-28T11:24:06.976Z,99540.78
2022-09-28T11:26:40.792Z,99539.13
2022-09-28T11:31:03.774Z,99533.13
2022-09-28T11:33:34.032Z,99533.38
2022-09-28T11:36:27.023Z,99532.41
2022-09-28T11:39:00.506Z,99527.66
2022-09-28T11:41:43.161Z,99535.00
2022-09-28T11:44:33.371Z,99531.78
2022-09-28T11:47:14.858Z,99525.03
2022-09-28T11:49:46.134Z,99528.91
2022-09-28T11:53:54.711Z,99532.41
2022-09-28T11:56:32.517Z,99536.59
2022-09-28T11:59:03.963Z,99525.69
2022-09-28T12:01:36.559Z,99534.31
2022-09-28T12:04:07.925Z,99525.69
2022-09-28T12:06:40.442Z,99524.56
2022-09-28T12:09:23.295Z,99522.75
2022-09-28T12:16:37.524Z,99516.47
2022-09-28T12:18:50.126Z,99513.81
2022-09-28T12:21:32.685Z,99520.63
2022-09-28T12:24:04.968Z,99521.31
2022-09-28T12:26:37.889Z,99523.97
2022-09-28T12:29:11.579Z,99527.75
2022-09-28T12:31:45.246Z,99509.50
2022-09-28T12:34:13.220Z,99524.88
2022-09-28T12:36:47.430Z,99514.16
2022-09-28T12:39:46.840Z,99509.56
2022-09-28T12:42:29.142Z,99514.50
2022-09-28T12:45:10.370Z,99509.72
2022-09-28T12:48:11.567Z,99506.56
2022-09-28T12:50:52.608Z,99512.84
2022-09-28T12:53:38.850Z,99510.53
2022-09-28T12:58:21.184Z,99515.81
2022-09-28T13:00:53.747Z,99510.19
2022-09-28T13:03:37.126Z,99515.34
2022-09-28T13:06:08.348Z,99514.66
2022-09-28T13:08:37.131Z,99519.50
2022-09-28T13:11:08.032Z,99524.78
2022-09-28T13:13:39.186Z,99513.47
2022-09-28T13:16:07.631Z,99513.28
2022-09-28T13:18:36.615Z,99517.75
2022-09-28T13:21:05.896Z,99508.81
2022-09-28T13:23:34.887Z,99518.09
2022-09-28T13:26:03.237Z,99512.63
2022-09-28T13:28:30.970Z,99512.44
2022-09-28T13:31:00.504Z,99513.75
2022-09-28T13:33:31.285Z,99516.72
2022-09-28T13:35:58.704Z,99524.31
2022-09-28T13:38:40.315Z,99522.97
2022-09-28T13:41:12.018Z,99525.94
2022-09-28T13:43:42.433Z,99530.22
2022-09-28T13:46:11.505Z,99535.50
2022-09-28T13:48:42.479Z,99524.72
2022-09-28T13:51:31.833Z,99531.47
2022-09-28T13:54:15.732Z,99530.09
2022-09-28T13:56:48.302Z,99530.44
2022-09-28T13:59:16.706Z,99529.94
2022-09-28T14:01:46.069Z,99529.09
2022-09-28T14:04:15.239Z,99527.41
2022-09-28T14:06:47.464Z,99523.81
2022-09-28T14:09:25.337Z,99533.06
2022-09-28T14:11:56.698Z,99531.63
2022-09-28T14:14:42.000Z,99530.81
2022-09-28T14:17:36.537Z,99530.84
2022-09-28T14:20:05.553Z,99535.50
2022-09-28T14:22:34.269Z,99539.47
2022-09-28T14:25:06.458Z,99540.16
2022-09-28T14:27:52.009Z,99542.47
2022-09-28T14:30:23.813Z,99540.84
2022-09-28T14:32:55.176Z,99543.66
2022-09-28T14:35:25.986Z,99546.44
2022-09-28T14:38:11.267Z,99537.50
2022-09-28T14:41:12.822Z,99530.56
2022-09-28T14:44:13.445Z,99531.06
2022-09-28T14:46:43.626Z,99529.44
2022-09-28T14:49:29.062Z,99531.13
2022-09-28T14:52:03.251Z,99534.63
2022-09-28T14:54:35.378Z,99535.28
2022-09-28T14:57:08.099Z,99532.63
2022-09-28T14:59:41.727Z,99534.63
2022-09-28T15:02:09.872Z,99535.78
2022-09-28T15:04:39.240Z,99535.44
2022-09-28T15:07:08.185Z,99536.91
2022-09-28T15:09:36.499Z,99531.97
2022-09-28T15:12:04.533Z,99537.78
2022-09-28T15:14:33.132Z,99537.63
2022-09-28T15:17:03.263Z,99540.28
2022-09-28T15:19:31.307Z,99543.91
2022-09-28T15:21:58.831Z,99536.97
2022-09-28T15:24:28.657Z,99547.88
2022-09-28T15:26:56.727Z,99542.91
2022-09-28T15:29:25.866Z,99538.59
2022-09-28T15:31:54.632Z,99546.84
2022-09-28T15:34:45.994Z,99546.03
2022-09-28T15:37:13.528Z,99548.00
2022-09-28T15:39:42.366Z,99549.84
2022-09-28T15:42:09.817Z,99552.78
2022-09-28T15:44:37.564Z,99545.84
2022-09-28T15:47:09.053Z,99547.66
2022-09-28T15:49:39.051Z,99553.13
2022-09-28T15:52:06.750Z,99547.00
2022-09-28T15:54:36.231Z,99555.75
2022-09-28T15:57:05.126Z,99555.09
2022-09-28T15:59:33.272Z,99567.50
2022-09-28T16:02:06.351Z,99571.97
2022-09-28T16:04:37.454Z,99575.59
2022-09-28T16:07:34.788Z,99574.94
2022-09-28T16:10:04.718Z,99575.56
2022-09-28T16:12:42.303Z,99577.53
2022-09-28T16:15:14.073Z,99588.44
2022-09-28T16:17:41.618Z,99581.63
2022-09-28T16:20:19.252Z,99579.31
2022-09-28T16:22:46.711Z,99583.25
2022-09-28T16:25:17.196Z,99582.75
2022-09-28T16:27:46.214Z,99579.63
2022-09-28T16:30:15.467Z,99587.84
2022-09-28T16:32:48.903Z,99584.72
2022-09-28T16:35:18.528Z,99587.66
2022-09-28T16:37:49.075Z,99593.25
2022-09-28T16:40:16.825Z,99598.72
2022-09-28T16:42:49.066Z,99599.84
2022-09-28T16:45:19.731Z,99604.47
2022-09-28T16:47:47.280Z,99603.47
2022-09-28T16:50:15.627Z,99604.47
2022-09-28T16:53:00.566Z,99608.09
2022-09-28T16:55:40.042Z,99613.38
2022-09-28T16:58:09.974Z,99625.94
2022-09-28T17:00:37.488Z,99631.53
2022-09-28T17:03:10.453Z,99640.75
2022-09-28T17:05:40.089Z,99641.88
2022-09-28T17:08:07.606Z,99659.22
2022-09-28T17:10:55.744Z,99659.00
2022-09-28T17:13:26.941Z,99674.25
2022-09-28T17:15:54.491Z,99675.59
2022-09-28T17:18:22.006Z,99674.00
2022-09-28T17:20:50.137Z,99673.25
2022-09-28T17:23:17.638Z,99669.69
2022-09-28T17:25:45.274Z,99674.44
2022-09-28T17:28:15.057Z,99681.00
2022-09-28T17:30:44.000Z,99681.28
2022-09-28T17:33:11.493Z,99679.78
2022-09-28T17:35:39.749Z,99683.56
2022-09-28T17:38:07.603Z,99687.16
2022-09-28T17:40:35.141Z,99685.50
2022-09-28T17:43:05.683Z,99682.84
2022-09-28T17:45:33.361Z,99680.22
2022-09-28T17:48:02.434Z,99680.22
2022-09-28T17:50:32.330Z,99688.13
2022-09-28T17:53:02.781Z,99685.50
2022-09-28T17:55:31.560Z,99678.41
2022-09-28T17:57:59.446Z,99682.84
2022-09-28T18:00:27.880Z,99680.38
2022-09-28T18:02:55.449Z,99689.28
2022-09-28T18:05:24.901Z,99676.91
2022-09-28T18:07:52.510Z,99679.53
2022-09-28T18:10:21.281Z,99678.03
2022-09-28T18:12:49.064Z,99680.84
2022-09-28T18:15:16.968Z,99672.06
2022-09-28T18:17:44.453Z,99674.84
2022-09-28T18:20:12.946Z,99673.19
2022-09-28T18:22:41.998Z,99670.72
2022-09-28T18:25:09.570Z,99670.56
2022-09-28T18:27:37.085Z,99676.66
2022-09-28T18:30:05.089Z,99683.75
2022-09-28T18:32:34.453Z,99674.16
2022-09-28T18:35:01.927Z,99682.09
2022-09-28T18:37:29.467Z,99673.50
2022-09-28T18:39:58.763Z,99686.69
2022-09-28T18:42:26.262Z,99682.41
2022-09-28T18:44:53.745Z,99681.69
2022-09-28T18:47:21.383Z,99679.22
2022-09-28T18:49:50.554Z,99687.13
2022-09-28T18:52:18.066Z,99689.09
2022-09-28T18:54:46.580Z,99686.59
2022-09-28T18:57:15.534Z,99693.81
2022-09-28T18:59:43.123Z,99690.50
2022-09-28T19:02:11.719Z,99681.91
2022-09-28T19:04:39.388Z,99679.41
2022-09-28T19:07:06.953Z,99682.19
2022-09-28T19:09:34.445Z,99684.97
2022-09-28T19:12:02.140Z,99687.75
2022-09-28T19:14:31.015Z,99689.72
2022-09-28T19:16:58.557Z,99692.50
2022-09-28T19:19:26.059Z,99690.00
2022-09-28T19:21:53.606Z,99687.66
2022-09-28T19:24:21.196Z,99684.34
2022-09-28T19:26:49.014Z,99685.31
2022-09-28T19:29:16.641Z,99692.53
2022-09-28T19:31:45.566Z,99692.84
2022-09-28T19:34:14.314Z,99696.44
2022-09-28T19:36:42.112Z,99694.91
2022-09-28T19:39:09.635Z,99695.88
2022-09-28T19:41:44.282Z,99697.03
2022-09-28T19:44:13.476Z,99703.28
2022-09-28T19:46:41.295Z,99701.75
2022-09-28T19:49:11.088Z,99706.19
2022-09-28T19:51:43.853Z,99704.53
2022-09-28T19:54:30.993Z,99709.13
2022-09-28T19:57:00.772Z,99708.44
2022-09-28T19:59:28.712Z,99705.13
2022-09-28T20:01:58.547Z,99707.03
2022-09-28T20:04:27.429Z,99714.28
2022-09-28T20:06:54.937Z,99712.63
2022-09-28T20:09:22.345Z,99721.50
2022-09-28T20:11:51.791Z,99719.03
2022-09-28T20:14:19.548Z,99720.94
2022-09-28T20:16:47.231Z,99722.75
2022-09-28T20:19:14.767Z,99724.72
2022-09-28T20:21:43.757Z,99727.34
2022-09-28T20:24:11.996Z,99723.19
2022-09-28T20:26:39.453Z,99726.81
2022-09-28T20:29:07.418Z,99732.19
2022-09-28T20:31:36.183Z,99727.91
2022-09-28T20:34:03.669Z,99729.84
2022-09-28T20:36:31.838Z,99736.09
2022-09-28T20:39:02.840Z,99735.44
2022-09-28T20:41:34.811Z,99744.28
2022-09-28T20:44:05.434Z,99746.22
2022-09-28T20:46:33.839Z,99734.19
2022-09-28T20:49:01.607Z,99744.72
2022-09-28T20:51:29.241Z,99742.34
2022-09-28T20:53:57.368Z,99747.75
2022-09-28T20:56:26.789Z,99748.59
2022-09-28T20:58:54.677Z,99738.19
2022-09-28T21:01:22.718Z,99747.09
2022-09-28T21:03:50.766Z,99745.38
2022-09-28T21:06:18.645Z,99749.84
2022-09-28T21:08:46.390Z,99749.97
2022-09-28T21:11:14.087Z,99753.56
2022-09-28T21:13:42.941Z,99752.88
2022-09-28T21:16:10.993Z,99740.66
2022-09-28T21:18:38.569Z,99753.16
2022-09-28T21:21:06.570Z,99754.13
2022-09-28T21:23:34.154Z,99756.06
2022-09-28T21:26:02.190Z,99766.59
2022-09-28T21:28:29.714Z,99762.44
2022-09-28T21:30:58.650Z,99766.06
2022-09-28T21:33:26.165Z,99767.03
2022-09-28T21:35:53.642Z,99768.13
2022-09-28T21:38:21.154Z,99767.28
2022-09-28T21:40:49.051Z,99771.03
2022-09-28T21:43:17.124Z,99768.56
2022-09-28T21:45:44.563Z,99771.19
2022-09-28T21:48:13.584Z,99770.34
2022-09-28T21:50:41.092Z,99777.53
2022-09-28T21:53:08.758Z,99780.31
2022-09-28T21:55:36.383Z,99778.66
2022-09-28T21:58:03.846Z,99775.34
2022-09-28T22:00:32.301Z,99778.13
2022-09-28T22:03:00.062Z,99777.41
2022-09-28T22:05:29.028Z,99776.72
2022-09-28T22:07:56.531Z,99781.16
2022-09-28T22:10:24.140Z,99783.94
2022-09-28T22:12:51.638Z,99785.88
2022-09-28T22:15:19.461Z,99780.59
2022-09-28T22:17:47.036Z,99785.03
2022-09-28T22:20:14.687Z,99786.00
2022-09-28T22:22:43.693Z,99786.13
2022-09-28T22:25:11.320Z,99787.94
2022-09-28T22:27:40.085Z,99797.78
2022-09-28T22:30:08.154Z,99795.28
2022-09-28T22:32:35.728Z,99796.94
2022-09-28T22:35:03.226Z,99800.56
2022-09-28T22:37:32.814Z,99796.25
2022-09-28T22:40:01.875Z,99797.19
2022-09-28T22:42:29.356Z,99799.84
2022-09-28T22:44:57.064Z,99806.91
2022-09-28T22:47:24.584Z,99802.47
2022-09-28T22:49:52.030Z,99800.81
2022-09-28T22:52:19.713Z,99805.09
2022-09-28T22:54:47.957Z,99807.88
2022-09-28T22:57:16.905Z,99806.06
2022-09-28T22:59:44.393Z,99801.78
2022-09-28T23:02:11.962Z,99797.50
2022-09-28T23:04:39.447Z,99796.78
2022-09-28T23:07:06.993Z,99797.63
2022-09-28T23:09:34.693Z,99795.13
2022-09-28T23:12:02.372Z,99803.97
2022-09-28T23:14:31.402Z,99797.88
2022-09-28T23:16:59.002Z,99803.28
2022-09-28T23:19:26.535Z,99810.34
2022-09-28T23:21:54.472Z,99809.53
2022-09-28T23:24:21.975Z,99804.41
2022-09-28T23:26:49.453Z,99801.91
2022-09-28T23:29:16.918Z,99803.72
2022-09-28T23:31:46.067Z,99803.72
2022-09-28T23:34:13.618Z,99805.50
2022-09-28T23:36:41.333Z,99809.91
2022-09-28T23:39:10.135Z,99801.31
2022-09-28T23:41:37.592Z,99806.59
2022-09-28T23:44:05.201Z,99809.38
2022-09-28T23:46:32.945Z,99806.88
2022-09-28T23:49:01.789Z,99806.88
2022-09-28T23:51:29.564Z,99812.13
2022-09-28T23:53:57.261Z,99813.09
2022-09-28T23:56:24.783Z,99817.53
2022-09-28T23:58:52.256Z,99814.91
